Time;durP1;ratioP1;P1;durP2;ratioP2;P2;SDS_P1;SDS_P2;PMS_P1;PMS_P2;Temp;Humidity;BMP_temperature;BMP_pressure;BME280_temperature;BME280_humidity;BME280_pressure;Samples;Min_cycle;Max_cycle;Signal;HPM_P1;HPM_P2
2023/11/03 00:00:31;;;;;;;6.40;4.83;;;10.50;99.90;10.40;97607.00;;;;4907055;28;109227;-67
2023/11/03 00:02:59;;;;;;;4.23;3.63;;;10.50;99.90;10.40;97582.00;;;;4910385;28;88898;-67
2023/11/03 00:05:25;;;;;;;5.63;4.47;;;10.40;99.90;10.30;97565.00;;;;4908141;28;88557;-67
2023/11/03 00:07:51;;;;;;;6.77;4.97;;;10.40;99.90;10.30;97571.00;;;;4893782;28;89621;-67
2023/11/03 00:10:18;;;;;;;6.43;4.17;;;10.30;99.90;10.20;97574.00;;;;4910772;28;110115;-67
2023/11/03 00:12:43;;;;;;;4.50;4.10;;;10.30;99.90;10.10;97577.00;;;;4904921;28;87706;-67
2023/11/03 00:15:12;;;;;;;7.97;4.50;;;10.00;99.90;10.10;97596.00;;;;4893458;28;88012;-67
2023/11/03 00:17:38;;;;;;;6.30;4.63;;;10.20;99.90;10.10;97600.00;;;;4901749;28;87999;-67
2023/11/03 00:20:06;;;;;;;4.20;3.80;;;10.20;99.90;10.10;97626.00;;;;4910176;28;108964;-66
2023/11/03 00:22:32;;;;;;;5.47;4.17;;;10.10;99.90;10.00;97638.00;;;;4908268;28;87890;-67
2023/11/03 00:24:58;;;;;;;5.77;4.80;;;10.10;99.90;10.00;97638.00;;;;4913188;28;88049;-66
2023/11/03 00:27:25;;;;;;;8.57;5.23;;;10.10;99.90;10.00;97624.00;;;;4909124;28;102520;-66
2023/11/03 00:29:52;;;;;;;5.70;4.73;;;10.00;99.90;10.00;97618.00;;;;4887494;28;88230;-66
2023/11/03 00:32:18;;;;;;;5.93;4.33;;;10.00;99.90;9.90;97609.00;;;;4911951;28;87946;-66
2023/11/03 00:34:44;;;;;;;6.50;4.07;;;10.00;99.90;9.90;97621.00;;;;4911057;28;116853;-67
2023/11/03 00:37:10;;;;;;;7.53;4.93;;;10.00;99.90;9.90;97642.00;;;;4903714;28;105446;-66
2023/11/03 00:39:35;;;;;;;5.37;4.73;;;10.00;99.90;9.90;97646.00;;;;4906074;28;110700;-66
2023/11/03 00:42:03;;;;;;;9.73;4.40;;;10.00;99.90;9.90;97642.00;;;;4907588;28;88227;-67
2023/11/03 00:44:29;;;;;;;7.67;4.63;;;10.00;99.90;9.90;97644.00;;;;4909834;28;87767;-67
2023/11/03 00:46:54;;;;;;;7.87;4.97;;;10.00;99.90;9.90;97643.00;;;;4897865;28;116225;-66
2023/11/03 00:49:20;;;;;;;6.63;4.00;;;10.00;99.90;9.90;97648.00;;;;4918393;28;87926;-66
2023/11/03 00:51:46;;;;;;;6.20;4.63;;;10.00;99.90;9.90;97658.00;;;;4907592;28;110177;-68
2023/11/03 00:54:12;;;;;;;5.57;4.87;;;9.90;99.90;9.90;97646.00;;;;4906940;28;87976;-67
2023/11/03 00:56:40;;;;;;;5.67;4.60;;;9.90;99.90;9.90;97645.00;;;;4915423;28;88082;-67
2023/11/03 00:59:07;;;;;;;6.50;4.53;;;9.90;99.90;9.90;97650.00;;;;4908760;28;87917;-67
2023/11/03 01:01:34;;;;;;;7.43;4.93;;;10.20;99.90;9.80;97663.00;;;;4900411;28;87369;-67
2023/11/03 01:04:00;;;;;;;11.73;4.07;;;10.00;99.90;9.80;97674.00;;;;4895880;28;105960;-68
2023/11/03 01:06:25;;;;;;;4.80;4.07;;;9.90;99.90;9.80;97674.00;;;;4914344;28;90062;-67
2023/11/03 01:08:51;;;;;;;6.17;4.17;;;9.90;99.90;9.80;97676.00;;;;4912051;28;110902;-66
2023/11/03 01:11:23;;;;;;;6.73;4.63;;;9.90;99.90;9.80;97685.00;;;;4913428;28;108904;-68
2023/11/03 01:13:50;;;;;;;6.53;4.83;;;9.90;99.90;9.80;97684.00;;;;4898816;28;88396;-68
2023/11/03 01:16:16;;;;;;;6.00;3.97;;;9.90;99.90;9.80;97681.00;;;;4910727;28;88807;-67
2023/11/03 01:18:45;;;;;;;8.47;4.73;;;9.90;99.90;9.80;97672.00;;;;4913489;28;88284;-68
2023/11/03 01:21:18;;;;;;;8.23;4.43;;;10.90;99.90;9.80;97661.00;;;;4889156;28;87725;-68
2023/11/03 01:23:48;;;;;;;7.03;4.20;;;9.90;99.90;9.80;97652.00;;;;4893456;28;88196;-67
2023/11/03 01:26:15;;;;;;;3.90;3.17;;;9.80;99.90;9.80;97642.00;;;;4914155;28;87895;-67
2023/11/03 01:28:41;;;;;;;6.47;4.43;;;9.80;99.90;9.80;97635.00;;;;4912824;28;87973;-67
2023/11/03 01:31:10;;;;;;;5.30;4.43;;;9.80;99.90;9.80;97626.00;;;;4915588;28;87970;-67
2023/11/03 01:33:40;;;;;;;5.03;4.23;;;10.10;99.90;9.70;97623.00;;;;4914366;28;88057;-67
2023/11/03 01:36:06;;;;;;;6.23;4.77;;;9.80;99.90;9.70;97619.00;;;;4895692;28;88490;-67
2023/11/03 01:38:33;;;;;;;8.10;4.33;;;9.80;99.90;9.70;97621.00;;;;4902915;28;87660;-66
2023/11/03 01:41:00;;;;;;;8.20;4.57;;;9.80;99.90;9.70;97616.00;;;;4910587;28;88792;-66
2023/11/03 01:43:26;;;;;;;4.23;3.50;;;10.30;99.90;9.70;97610.00;;;;4905617;28;90081;-66
2023/11/03 01:45:52;;;;;;;8.43;4.70;;;9.80;99.90;9.70;97606.00;;;;4915606;28;109033;-66
2023/11/03 01:48:18;;;;;;;8.60;4.23;;;9.80;99.90;9.70;97592.00;;;;4916151;28;95143;-66
2023/11/03 01:50:44;;;;;;;6.10;4.53;;;9.70;99.90;9.70;97569.00;;;;4911635;28;88069;-68
2023/11/03 01:53:12;;;;;;;6.40;4.07;;;9.70;99.90;9.60;97558.00;;;;4904559;28;88908;-66
2023/11/03 01:55:38;;;;;;;7.03;4.50;;;9.70;99.90;9.60;97557.00;;;;4915254;28;116432;-67
2023/11/03 01:58:04;;;;;;;5.47;3.93;;;9.70;99.90;9.60;97555.00;;;;4911857;28;108987;-66
2023/11/03 02:00:30;;;;;;;6.07;4.30;;;9.70;99.90;9.60;97565.00;;;;4912249;28;87625;-65
2023/11/03 02:02:56;;;;;;;6.57;5.10;;;9.70;99.90;9.60;97564.00;;;;4905383;28;116575;-67
2023/11/03 02:05:22;;;;;;;6.60;3.73;;;9.60;99.90;9.60;97554.00;;;;4911549;28;89087;-66
2023/11/03 02:07:48;;;;;;;7.47;4.17;;;9.60;99.90;9.60;97565.00;;;;4909955;28;111357;-66
2023/11/03 02:10:14;;;;;;;6.90;4.53;;;9.60;99.90;9.60;97573.00;;;;4891440;28;87803;-67
2023/11/03 02:12:40;;;;;;;5.57;4.17;;;9.60;99.90;9.60;97582.00;;;;4886217;28;111113;-68
2023/11/03 02:15:06;;;;;;;5.97;4.57;;;9.60;99.90;9.60;97575.00;;;;4912734;28;117375;-68
2023/11/03 02:17:33;;;;;;;7.80;4.67;;;9.60;99.90;9.60;97593.00;;;;4901796;28;99288;-67
2023/11/03 02:19:58;;;;;;;8.10;4.73;;;9.60;99.90;9.60;97602.00;;;;4914560;28;88121;-68
2023/11/03 02:22:24;;;;;;;6.40;3.30;;;9.60;99.90;9.60;97592.00;;;;4905429;28;117544;-68
2023/11/03 02:24:50;;;;;;;7.63;4.63;;;9.60;99.90;9.50;97599.00;;;;4887773;28;116774;-68
2023/11/03 02:27:15;;;;;;;5.50;3.87;;;9.60;99.90;9.50;97608.00;;;;4892961;28;109838;-67
2023/11/03 02:29:41;;;;;;;5.23;3.60;;;9.60;99.90;9.50;97605.00;;;;4907237;28;106597;-68
2023/11/03 02:32:07;;;;;;;7.13;5.00;;;9.50;99.90;9.50;97613.00;;;;4895022;28;116079;-68
2023/11/03 02:34:32;;;;;;;4.83;3.90;;;9.60;99.90;9.50;97606.00;;;;4906520;28;117770;-68
2023/11/03 02:37:01;;;;;;;5.60;4.53;;;9.50;99.90;9.50;97612.00;;;;4907593;28;107096;-68
2023/11/03 02:39:27;;;;;;;5.23;3.73;;;9.50;99.90;9.50;97623.00;;;;4906459;28;108488;-69
2023/11/03 02:41:53;;;;;;;8.53;4.63;;;9.50;99.90;9.40;97621.00;;;;4890981;28;90059;-68
2023/11/03 02:44:18;;;;;;;8.03;4.23;;;9.50;99.90;9.40;97629.00;;;;4906093;28;119003;-67
2023/11/03 02:46:45;;;;;;;6.87;3.70;;;9.50;99.90;9.40;97610.00;;;;4908111;28;111803;-67
2023/11/03 02:49:10;;;;;;;4.33;3.60;;;9.50;99.90;9.40;97619.00;;;;4892284;28;87933;-68
2023/11/03 02:51:36;;;;;;;4.87;3.50;;;9.40;99.90;9.40;97612.00;;;;4878207;28;87675;-68
2023/11/03 02:54:03;;;;;;;6.10;4.23;;;10.60;99.90;9.40;97607.00;;;;4894742;28;103596;-68
2023/11/03 02:56:29;;;;;;;6.50;4.67;;;9.50;99.90;9.40;97622.00;;;;4910795;28;87684;-67
2023/11/03 02:58:54;;;;;;;5.00;3.73;;;9.40;99.90;9.30;97614.00;;;;4902242;28;88035;-68
2023/11/03 03:01:36;;;;;;;4.07;3.17;;;9.50;99.90;9.30;97604.00;;;;4911262;28;118538;-68
2023/11/03 03:04:03;;;;;;;2.70;2.50;;;9.40;99.90;9.30;97614.00;;;;4882010;28;88418;-67
2023/11/03 03:06:29;;;;;;;5.77;4.07;;;9.40;99.90;9.30;97611.00;;;;4906941;28;93575;-67
2023/11/03 03:08:54;;;;;;;4.07;2.97;;;9.40;99.90;9.30;97614.00;;;;4900884;28;109174;-68
2023/11/03 03:11:20;;;;;;;7.80;3.47;;;9.40;99.90;9.30;97613.00;;;;4910209;28;116913;-67
2023/11/03 03:13:46;;;;;;;4.40;3.87;;;9.40;99.90;9.30;97612.00;;;;4903716;28;115057;-69
2023/11/03 03:16:16;;;;;;;6.63;3.37;;;9.40;99.90;9.30;97615.00;;;;4891281;28;109284;-68
2023/11/03 03:18:41;;;;;;;5.07;3.30;;;9.40;99.90;9.30;97620.00;;;;4903363;28;101797;-67
2023/11/03 03:21:07;;;;;;;7.03;3.57;;;9.30;99.90;9.20;97610.00;;;;4908692;28;118387;-67
2023/11/03 03:23:33;;;;;;;10.40;3.77;;;9.30;99.90;9.20;97614.00;;;;4898723;28;116935;-67
2023/11/03 03:25:58;;;;;;;3.40;2.87;;;9.30;99.90;9.20;97615.00;;;;4894597;28;88297;-69
2023/11/03 03:28:24;;;;;;;3.30;2.87;;;9.30;99.90;9.20;97609.00;;;;4898869;28;108504;-68
2023/11/03 03:30:51;;;;;;;4.03;2.87;;;9.30;99.90;9.20;97603.00;;;;4908223;28;117235;-67
2023/11/03 03:33:16;;;;;;;4.20;3.23;;;9.30;99.90;9.20;97607.00;;;;4905362;28;88823;-68
2023/11/03 03:35:42;;;;;;;7.13;3.40;;;9.30;99.90;9.20;97598.00;;;;4897823;28;87267;-68
2023/11/03 03:38:08;;;;;;;4.50;3.27;;;9.30;99.90;9.20;97591.00;;;;4901321;28;102539;-68
2023/11/03 03:40:33;;;;;;;3.20;2.90;;;9.30;99.90;9.10;97597.00;;;;4910538;28;98888;-68
2023/11/03 03:43:02;;;;;;;5.10;3.63;;;9.20;99.90;9.10;97599.00;;;;4901155;28;113612;-68
2023/11/03 03:45:29;;;;;;;3.47;3.13;;;9.20;99.90;9.10;97583.00;;;;4911425;28;111832;-69
2023/11/03 03:47:54;;;;;;;2.83;2.63;;;9.20;99.90;9.00;97597.00;;;;4900075;28;87900;-68
2023/11/03 03:50:20;;;;;;;6.47;4.17;;;9.10;99.90;9.10;97587.00;;;;4908082;28;89156;-68
2023/11/03 03:52:46;;;;;;;3.50;2.40;;;9.10;99.90;9.00;97594.00;;;;4905448;28;89482;-69
2023/11/03 03:55:11;;;;;;;5.80;3.03;;;9.10;99.90;9.00;97601.00;;;;4911799;28;109481;-69
2023/11/03 03:57:37;;;;;;;5.57;3.13;;;9.10;99.90;9.00;97598.00;;;;4900260;28;88108;-68
2023/11/03 04:00:05;;;;;;;5.60;3.40;;;9.10;99.90;9.00;97600.00;;;;4913599;28;117450;-68
2023/11/03 04:02:30;;;;;;;4.27;2.73;;;9.10;99.90;9.00;97605.00;;;;4909741;28;88189;-68
2023/11/03 04:04:56;;;;;;;3.30;2.63;;;9.00;99.90;8.90;97609.00;;;;4912556;28;99205;-67
2023/11/03 04:07:22;;;;;;;5.57;2.80;;;9.10;99.90;8.90;97612.00;;;;4903977;28;88703;-67
2023/11/03 04:09:48;;;;;;;3.33;2.73;;;9.00;99.90;8.90;97615.00;;;;4908334;28;117778;-68
2023/11/03 04:12:14;;;;;;;4.13;2.67;;;9.00;99.90;8.90;97618.00;;;;4905739;28;91865;-68
2023/11/03 04:14:39;;;;;;;3.63;2.03;;;9.00;99.90;8.90;97609.00;;;;4911206;28;87877;-67
2023/11/03 04:17:05;;;;;;;4.10;2.90;;;9.00;99.90;8.90;97603.00;;;;4908021;28;88011;-67
2023/11/03 04:19:32;;;;;;;3.37;2.67;;;9.00;99.90;8.90;97599.00;;;;4911837;28;88737;-69
2023/11/03 04:21:58;;;;;;;3.20;2.10;;;9.00;99.90;8.90;97589.00;;;;4910816;28;87872;-69
2023/11/03 04:24:24;;;;;;;2.83;2.30;;;9.00;99.90;8.90;97585.00;;;;4897370;28;87118;-69
2023/11/03 04:26:49;;;;;;;3.77;2.60;;;9.00;99.90;8.80;97568.00;;;;4899651;28;87664;-68
2023/11/03 04:29:17;;;;;;;2.97;2.47;;;9.00;99.90;8.80;97573.00;;;;4883193;28;118591;-68
2023/11/03 04:31:42;;;;;;;2.23;1.80;;;8.90;99.90;8.80;97558.00;;;;4907380;28;89019;-67
2023/11/03 04:34:08;;;;;;;3.30;2.50;;;9.80;99.90;8.80;97564.00;;;;4904195;28;110430;-67
2023/11/03 04:36:34;;;;;;;4.17;3.00;;;8.90;99.90;8.80;97577.00;;;;4914003;28;108694;-68
2023/11/03 04:39:00;;;;;;;3.60;2.77;;;8.90;99.90;8.80;97564.00;;;;4907884;28;88578;-67
2023/11/03 04:41:25;;;;;;;2.03;1.80;;;8.90;99.90;8.80;97578.00;;;;4914844;28;117679;-66
2023/11/03 04:43:51;;;;;;;2.80;2.00;;;8.50;99.90;8.70;97578.00;;;;4907689;28;109672;-66
2023/11/03 04:46:17;;;;;;;4.00;2.87;;;8.80;99.90;8.70;97584.00;;;;4913998;28;88199;-66
2023/11/03 04:48:44;;;;;;;3.40;3.10;;;8.80;99.90;8.70;97589.00;;;;4905108;28;116811;-66
2023/11/03 04:51:10;;;;;;;2.57;2.10;;;8.80;99.90;8.70;97591.00;;;;4914102;28;87524;-66
2023/11/03 04:53:36;;;;;;;4.50;2.73;;;8.80;99.90;8.70;97590.00;;;;4893781;28;87771;-66
2023/11/03 04:56:02;;;;;;;5.83;2.37;;;8.80;99.90;8.70;97591.00;;;;4892079;28;108398;-66
2023/11/03 04:58:27;;;;;;;3.03;2.53;;;8.80;99.90;8.70;97572.00;;;;4914601;28;88188;-66
2023/11/03 05:00:53;;;;;;;4.27;2.63;;;8.70;99.90;8.70;97560.00;;;;4894530;28;88129;-66
2023/11/03 05:03:19;;;;;;;2.63;1.80;;;8.80;99.90;8.70;97548.00;;;;4906739;28;99764;-65
2023/11/03 05:05:46;;;;;;;2.27;1.87;;;8.70;99.90;8.60;97547.00;;;;4913167;28;108198;-66
2023/11/03 05:08:12;;;;;;;3.27;1.87;;;8.70;99.90;8.70;97553.00;;;;4891113;28;90109;-66
2023/11/03 05:10:38;;;;;;;2.23;2.03;;;8.70;99.90;8.60;97555.00;;;;4916093;28;88599;-66
2023/11/03 05:13:05;;;;;;;2.73;1.77;;;8.70;99.90;8.60;97570.00;;;;4905303;28;86894;-66
2023/11/03 05:15:31;;;;;;;3.13;2.23;;;8.70;99.90;8.60;97576.00;;;;4896278;28;87901;-66
2023/11/03 05:17:58;;;;;;;2.30;2.10;;;8.70;99.90;8.60;97579.00;;;;4904612;28;99610;-66
2023/11/03 05:20:25;;;;;;;3.37;1.73;;;8.70;99.90;8.60;97571.00;;;;4915352;28;88762;-66
2023/11/03 05:22:51;;;;;;;3.77;2.07;;;8.70;99.90;8.60;97572.00;;;;4906440;28;87806;-66
2023/11/03 05:25:17;;;;;;;2.27;2.07;;;8.70;99.90;8.60;97574.00;;;;4915199;28;110510;-66
2023/11/03 05:27:43;;;;;;;2.63;1.83;;;8.60;99.90;8.60;97576.00;;;;4888270;28;89563;-67
2023/11/03 05:30:09;;;;;;;2.27;1.83;;;8.60;99.90;8.60;97573.00;;;;4910576;28;116866;-68
2023/11/03 05:32:35;;;;;;;2.03;1.77;;;8.70;99.90;8.60;97569.00;;;;4899648;28;99653;-65
2023/11/03 05:35:01;;;;;;;2.07;1.73;;;8.60;99.90;8.60;97566.00;;;;4883040;28;87927;-67
2023/11/03 05:37:27;;;;;;;2.60;1.47;;;8.60;99.90;8.50;97543.00;;;;4908139;28;87042;-67
2023/11/03 05:39:53;;;;;;;1.17;1.10;;;8.60;99.90;8.50;97515.00;;;;4917193;28;90622;-67
2023/11/03 05:42:19;;;;;;;1.30;1.07;;;8.60;99.90;8.50;97511.00;;;;4915612;28;102468;-67
2023/11/03 05:44:45;;;;;;;2.23;1.33;;;8.60;99.90;8.50;97522.00;;;;4914770;28;89257;-67
2023/11/03 05:47:12;;;;;;;2.53;1.43;;;8.60;99.90;8.40;97565.00;;;;4909018;28;88879;-65
2023/11/03 05:49:40;;;;;;;1.80;1.13;;;8.60;99.90;8.40;97596.00;;;;4914400;28;87697;-67
2023/11/03 05:52:06;;;;;;;1.97;1.50;;;8.60;99.90;8.40;97618.00;;;;4889449;28;110714;-67
2023/11/03 05:54:32;;;;;;;1.57;1.23;;;8.50;99.90;8.40;97634.00;;;;4910452;28;87591;-67
2023/11/03 05:56:57;;;;;;;0.90;0.90;;;8.50;99.90;8.40;97651.00;;;;4894843;28;117035;-66
2023/11/03 05:59:24;;;;;;;14.70;1.50;;;8.50;99.90;8.40;97664.00;;;;4889295;28;108667;-67
2023/11/03 06:01:51;;;;;;;1.53;1.13;;;8.50;99.90;8.40;97672.00;;;;4913835;28;87613;-68
2023/11/03 06:04:16;;;;;;;2.57;1.30;;;8.50;99.90;8.40;97687.00;;;;4904910;28;88079;-67
2023/11/03 06:06:43;;;;;;;2.97;1.50;;;8.50;99.90;8.40;97690.00;;;;4894313;28;87557;-67
2023/11/03 06:09:11;;;;;;;1.33;1.10;;;8.50;99.90;8.40;97689.00;;;;4901737;28;104949;-67
2023/11/03 06:11:37;;;;;;;4.07;1.00;;;9.90;99.90;8.40;97671.00;;;;4894759;28;87514;-68
2023/11/03 06:14:04;;;;;;;1.37;1.20;;;8.40;99.90;8.40;97680.00;;;;4910089;28;87752;-68
2023/11/03 06:16:30;;;;;;;9.73;1.03;;;8.40;99.90;8.40;97688.00;;;;4888568;28;87821;-68
2023/11/03 06:18:56;;;;;;;2.10;1.00;;;8.50;99.90;8.40;97700.00;;;;4900937;28;88435;-67
2023/11/03 06:21:22;;;;;;;2.47;1.27;;;8.50;99.90;8.40;97718.00;;;;4904630;28;87589;-68
2023/11/03 06:23:48;;;;;;;4.00;1.47;;;8.50;99.90;8.40;97681.00;;;;4880853;28;87940;-67
2023/11/03 06:26:13;;;;;;;1.10;1.00;;;8.50;99.90;8.40;97659.00;;;;4909270;28;101408;-67
2023/11/03 06:28:39;;;;;;;1.13;1.03;;;8.50;99.90;8.40;97669.00;;;;4886133;28;88382;-67
2023/11/03 06:31:05;;;;;;;1.93;1.20;;;8.50;99.90;8.30;97690.00;;;;4900849;28;110350;-67
2023/11/03 06:33:30;;;;;;;2.10;1.33;;;8.50;99.90;8.30;97696.00;;;;4898440;28;88695;-68
2023/11/03 06:35:59;;;;;;;4.80;1.13;;;8.50;99.90;8.30;97688.00;;;;4887660;28;116757;-68
2023/11/03 06:38:25;;;;;;;1.80;1.43;;;8.50;99.90;8.30;97683.00;;;;4898799;28;87642;-67
2023/11/03 06:40:51;;;;;;;2.43;1.57;;;8.40;99.90;8.30;97678.00;;;;4906919;28;89046;-68
2023/11/03 06:43:16;;;;;;;4.87;1.27;;;8.40;99.90;8.30;97692.00;;;;4907559;28;89161;-68
2023/11/03 06:45:42;;;;;;;2.93;1.40;;;8.40;99.90;8.30;97694.00;;;;4904931;28;116828;-67
2023/11/03 06:48:08;;;;;;;2.27;1.30;;;8.40;99.90;8.30;97675.00;;;;4900326;28;109997;-67
2023/11/03 06:50:34;;;;;;;2.30;1.30;;;8.40;99.90;8.30;97674.00;;;;4873252;28;86492;-68
2023/11/03 06:52:59;;;;;;;5.03;1.37;;;8.70;99.90;8.30;97673.00;;;;4881116;28;108806;-68
2023/11/03 06:55:28;;;;;;;4.17;1.57;;;8.20;99.90;8.30;97691.00;;;;4912607;28;118870;-67
2023/11/03 06:57:54;;;;;;;1.60;1.30;;;8.40;99.90;8.30;97690.00;;;;4903712;28;88776;-68
2023/11/03 07:00:20;;;;;;;2.40;1.53;;;8.50;99.90;8.30;97691.00;;;;4912742;28;109227;-67
2023/11/03 07:02:45;;;;;;;2.80;1.53;;;8.40;99.90;8.30;97683.00;;;;4887904;28;87740;-68
2023/11/03 07:05:11;;;;;;;2.30;1.47;;;8.40;99.90;8.30;97685.00;;;;4908962;28;114056;-68
2023/11/03 07:07:37;;;;;;;1.37;1.03;;;8.40;99.90;8.30;97676.00;;;;4902701;28;87853;-67
2023/11/03 07:10:03;;;;;;;2.77;1.70;;;8.60;99.90;8.30;97684.00;;;;4907756;28;88883;-66
2023/11/03 07:12:30;;;;;;;1.93;0.77;;;8.50;99.90;8.40;97692.00;;;;4904289;28;95061;-67
2023/11/03 07:14:56;;;;;;;2.10;1.63;;;8.50;99.90;8.40;97703.00;;;;4909543;28;87599;-67
2023/11/03 07:17:22;;;;;;;3.10;1.87;;;8.50;99.90;8.40;97723.00;;;;4905598;28;87692;-67
2023/11/03 07:19:48;;;;;;;2.60;2.33;;;8.40;99.90;8.40;97718.00;;;;4891520;28;87883;-67
2023/11/03 07:22:15;;;;;;;4.33;1.80;;;8.60;99.90;8.40;97725.00;;;;4905883;28;90042;-67
2023/11/03 07:24:42;;;;;;;3.67;1.50;;;8.50;99.90;8.40;97736.00;;;;4906587;28;88032;-67
2023/11/03 07:27:08;;;;;;;1.27;1.03;;;8.50;99.90;8.40;97733.00;;;;4894071;28;90639;-66
2023/11/03 07:29:34;;;;;;;1.73;1.27;;;8.50;99.90;8.50;97726.00;;;;4907036;28;100981;-66
2023/11/03 07:32:00;;;;;;;3.83;1.57;;;8.50;99.90;8.50;97723.00;;;;4907807;28;87624;-66
2023/11/03 07:34:25;;;;;;;1.57;1.47;;;8.50;99.90;8.50;97717.00;;;;4904154;28;90008;-67
2023/11/03 07:36:51;;;;;;;3.13;1.60;;;8.60;99.90;8.50;97706.00;;;;4902884;28;117095;-67
2023/11/03 07:39:17;;;;;;;2.53;0.97;;;8.60;99.90;8.50;97705.00;;;;4902847;28;86962;-66
2023/11/03 07:41:43;;;;;;;2.43;1.20;;;8.60;99.90;8.60;97715.00;;;;4905954;28;87960;-68
2023/11/03 07:44:10;;;;;;;1.33;1.20;;;8.70;99.90;8.60;97704.00;;;;4895334;28;88890;-67
2023/11/03 07:46:36;;;;;;;3.60;2.60;;;8.60;99.90;8.60;97706.00;;;;4029923;28;10000229;-67
2023/11/03 07:49:03;;;;;;;8.00;2.57;;;8.70;99.90;8.60;97707.00;;;;4903247;28;87764;-67
2023/11/03 07:51:32;;;;;;;3.50;1.83;;;8.70;99.90;8.70;97719.00;;;;4907049;28;87570;-67
2023/11/03 07:53:58;;;;;;;3.33;1.80;;;8.70;99.90;8.70;97729.00;;;;4881837;28;88100;-67
2023/11/03 07:56:24;;;;;;;2.17;1.10;;;8.80;99.90;8.70;97727.00;;;;4908932;28;87624;-67
2023/11/03 07:58:49;;;;;;;2.10;1.13;;;8.80;99.90;8.70;97726.00;;;;4898315;28;109057;-67
2023/11/03 08:01:16;;;;;;;1.00;0.87;;;8.80;99.90;8.70;97728.00;;;;4903860;28;88195;-67
2023/11/03 08:03:43;;;;;;;1.70;0.90;;;8.80;99.90;8.70;97732.00;;;;4897062;28;86875;-68
2023/11/03 08:06:09;;;;;;;3.47;1.80;;;9.30;99.90;8.70;97726.00;;;;4906691;28;88051;-68
2023/11/03 08:08:35;;;;;;;4.70;1.23;;;10.00;99.90;8.80;97722.00;;;;4030206;28;10000414;-68
2023/11/03 08:11:04;;;;;;;2.90;1.53;;;8.80;99.90;8.80;97715.00;;;;4890217;28;88515;-68
2023/11/03 08:13:30;;;;;;;1.13;0.97;;;8.90;99.90;8.80;97720.00;;;;4903040;28;88358;-68
2023/11/03 08:15:56;;;;;;;1.43;1.33;;;8.90;99.90;8.90;97728.00;;;;4902380;28;119862;-69
2023/11/03 08:18:23;;;;;;;1.77;1.30;;;8.90;99.90;8.90;97737.00;;;;4899545;28;116318;-69
2023/11/03 08:20:49;;;;;;;1.47;1.23;;;9.00;99.90;8.90;97725.00;;;;4907803;28;87547;-70
2023/11/03 08:23:15;;;;;;;1.63;1.17;;;9.00;99.90;9.00;97714.00;;;;4887505;28;100616;-70
2023/11/03 08:25:44;;;;;;;1.60;1.33;;;9.00;99.90;9.00;97713.00;;;;4904591;28;88922;-69
2023/11/03 08:28:10;;;;;;;1.93;1.13;;;9.10;99.90;9.00;97708.00;;;;4900623;28;117643;-70
2023/11/03 08:30:39;;;;;;;2.63;1.57;;;9.10;99.90;9.10;97702.00;;;;4907407;28;109614;-70
2023/11/03 08:33:06;;;;;;;1.90;1.63;;;9.20;99.90;9.10;97696.00;;;;4899605;28;87475;-71
2023/11/03 08:35:34;;;;;;;3.37;0.97;;;9.20;99.90;9.20;97687.00;;;;4908068;28;88900;-70
2023/11/03 08:38:00;;;;;;;5.17;1.60;;;10.00;99.90;9.20;97687.00;;;;4898978;28;93712;-71
2023/11/03 08:40:26;;;;;;;6.73;1.03;;;9.30;99.90;9.20;97677.00;;;;4907510;28;88426;-70
2023/11/03 08:42:52;;;;;;;2.47;1.60;;;9.30;99.90;9.20;97674.00;;;;4867486;28;88233;-70
2023/11/03 08:45:19;;;;;;;6.13;2.03;;;9.30;99.90;9.30;97672.00;;;;4902724;28;87539;-70
2023/11/03 08:47:46;;;;;;;2.00;1.03;;;9.30;99.90;9.30;97683.00;;;;4883027;28;87930;-70
2023/11/03 08:50:14;;;;;;;1.90;1.53;;;9.30;99.90;9.30;97694.00;;;;4905544;28;87625;-70
2023/11/03 08:52:44;;;;;;;0.90;0.70;;;9.40;99.90;9.30;97701.00;;;;4873809;28;87091;-68
2023/11/03 08:55:12;;;;;;;1.23;1.13;;;9.40;99.90;9.40;97696.00;;;;4907287;28;88579;-70
2023/11/03 08:57:40;;;;;;;1.23;0.90;;;9.40;99.90;9.40;97710.00;;;;4881371;28;87894;-70
2023/11/03 09:00:09;;;;;;;1.80;1.27;;;9.50;99.90;9.40;97729.00;;;;4908039;28;88891;-71
2023/11/03 09:02:40;;;;;;;4.67;1.33;;;9.50;99.90;9.40;97737.00;;;;4872955;28;88010;-70
2023/11/03 09:05:09;;;;;;;2.70;1.27;;;9.50;99.90;9.50;97739.00;;;;4896408;28;87686;-70
2023/11/03 09:07:36;;;;;;;3.57;1.37;;;9.50;99.90;9.50;97738.00;;;;4893543;28;89393;-67
2023/11/03 09:10:03;;;;;;;1.00;0.90;;;9.60;99.90;9.50;97733.00;;;;4909451;28;87571;-68
2023/11/03 09:12:30;;;;;;;4.80;1.30;;;9.60;99.90;9.50;97731.00;;;;4886296;28;87627;-67
2023/11/03 09:14:56;;;;;;;2.47;1.40;;;9.60;99.90;9.60;97740.00;;;;4907245;28;88085;-66
2023/11/03 09:17:22;;;;;;;3.00;1.10;;;9.60;99.90;9.60;97734.00;;;;4891170;28;102236;-67
2023/11/03 09:19:48;;;;;;;3.13;0.93;;;9.60;99.90;9.60;97732.00;;;;4912255;28;87646;-67
2023/11/03 09:22:14;;;;;;;1.97;1.20;;;9.70;99.90;9.60;97729.00;;;;4904391;28;109332;-67
2023/11/03 09:24:40;;;;;;;0.57;0.53;;;9.60;99.90;9.60;97722.00;;;;4904339;28;88864;-69
2023/11/03 09:27:06;;;;;;;2.17;0.80;;;9.70;99.90;9.70;97719.00;;;;4902430;28;117501;-68
2023/11/03 09:29:31;;;;;;;6.97;1.17;;;9.70;99.90;9.70;97718.00;;;;4909577;28;87851;-66
2023/11/03 09:31:57;;;;;;;1.03;0.80;;;9.80;99.90;9.70;97711.00;;;;4872428;28;107697;-67
2023/11/03 09:34:22;;;;;;;3.83;0.87;;;9.80;99.90;9.70;97708.00;;;;4908546;28;116007;-68
2023/11/03 09:36:50;;;;;;;2.67;1.07;;;9.80;99.90;9.70;97709.00;;;;4905041;28;119987;-67
2023/11/03 09:39:15;;;;;;;0.77;0.77;;;9.80;99.90;9.70;97703.00;;;;4905240;28;87693;-66
2023/11/03 09:42:02;;;;;;;1.30;0.87;;;9.80;99.90;9.70;97704.00;;;;4878193;28;106957;-66
2023/11/03 09:44:31;;;;;;;3.40;0.60;;;9.80;99.90;9.80;97701.00;;;;4905382;28;88420;-66
2023/11/03 09:47:00;;;;;;;0.93;0.50;;;9.80;99.90;9.80;97707.00;;;;4910727;28;88626;-67
2023/11/03 09:49:29;;;;;;;0.80;0.77;;;9.80;99.90;9.80;97714.00;;;;4892156;28;88547;-67
2023/11/03 09:52:04;;;;;;;3.83;1.53;;;9.80;99.90;9.80;97714.00;;;;4907770;28;87754;-67
2023/11/03 09:54:35;;;;;;;2.43;1.30;;;9.90;99.90;9.80;97711.00;;;;4905371;28;89198;-67
2023/11/03 09:57:10;;;;;;;7.87;3.63;;;9.90;99.90;9.80;97725.00;;;;4905833;28;88730;-68
2023/11/03 09:59:38;;;;;;;3.77;2.20;;;9.90;99.90;9.80;97732.00;;;;4905992;28;89276;-66
2023/11/03 10:02:15;;;;;;;4.57;1.50;;;9.90;99.90;9.80;97731.00;;;;4908396;28;87741;-66
2023/11/03 10:04:41;;;;;;;2.73;0.80;;;9.90;99.90;9.80;97730.00;;;;4908297;28;88323;-66
2023/11/03 10:07:10;;;;;;;4.83;1.37;;;9.90;99.90;9.80;97727.00;;;;4907586;28;87594;-66
2023/11/03 10:09:38;;;;;;;1.93;1.10;;;9.90;99.90;9.90;97734.00;;;;4908262;28;87829;-67
2023/11/03 10:12:10;;;;;;;1.37;1.17;;;10.00;99.90;9.90;97731.00;;;;4906170;28;87784;-67
2023/11/03 10:14:39;;;;;;;5.20;2.13;;;10.00;99.90;9.90;97740.00;;;;4902911;28;89277;-68
2023/11/03 10:17:07;;;;;;;2.57;1.43;;;10.00;99.90;9.90;97747.00;;;;4907055;28;89255;-68
2023/11/03 10:19:33;;;;;;;3.27;1.33;;;8.80;99.90;9.90;97743.00;;;;4900307;28;87908;-67
2023/11/03 10:22:06;;;;;;;6.93;1.07;;;10.00;99.90;9.90;97749.00;;;;4908764;28;87801;-67
2023/11/03 10:24:32;;;;;;;1.20;1.10;;;10.00;99.90;9.90;97744.00;;;;4904931;28;88399;-67
2023/11/03 10:26:59;;;;;;;0.87;0.87;;;10.00;99.90;9.90;97751.00;;;;4909445;28;88662;-67
2023/11/03 10:29:26;;;;;;;6.40;2.33;;;10.00;99.90;9.90;97729.00;;;;4903412;28;99345;-67
2023/11/03 10:31:51;;;;;;;7.20;2.10;;;10.00;99.90;10.00;97749.00;;;;4910486;28;87105;-67
2023/11/03 10:34:19;;;;;;;2.60;1.20;;;10.00;99.90;10.00;97742.00;;;;4901689;28;119064;-68
2023/11/03 10:36:48;;;;;;;1.90;1.20;;;10.00;99.90;10.00;97730.00;;;;4904844;28;88752;-70
2023/11/03 10:39:15;;;;;;;3.30;0.80;;;10.00;99.90;10.00;97720.00;;;;4877391;28;88428;-69
2023/11/03 10:41:42;;;;;;;4.20;1.23;;;11.20;99.90;10.00;97724.00;;;;4909556;28;89579;-69
2023/11/03 10:44:14;;;;;;;1.37;1.00;;;10.10;99.90;10.00;97728.00;;;;4889826;28;90806;-69
2023/11/03 10:46:51;;;;;;;4.53;1.80;;;10.10;99.90;10.00;97725.00;;;;4905541;28;88706;-70
2023/11/03 10:49:34;;;;;;;4.07;1.60;;;10.10;99.90;10.00;97715.00;;;;4870428;28;87873;-69
2023/11/03 10:52:14;;;;;;;2.00;1.70;;;10.10;99.90;10.10;97716.00;;;;4886245;28;94014;-68
2023/11/03 10:55:06;;;;;;;7.47;1.27;;;10.10;99.90;10.10;97715.00;;;;4906902;28;110573;-69
2023/11/03 10:57:34;;;;;;;3.23;1.57;;;10.10;99.90;10.10;97718.00;;;;4901875;28;88459;-69
2023/11/03 11:00:17;;;;;;;1.97;1.37;;;10.10;99.90;10.10;97717.00;;;;4893654;28;88161;-70
2023/11/03 11:03:10;;;;;;;0.67;0.60;;;10.20;99.90;10.10;97722.00;;;;4882124;28;87854;-68